16 sierpnia 2022

Czas Kod Pogoda Temp. Widoczność Sufit Wiatr METAR/SPECI
13:25
V
26 °C 10 km+ - 230° 230° 7 kt METAR EHLE 161125Z AUTO 23007KT 180V280 9999 NSC 26/16 Q1007 NOSIG
12:55
V
26 °C 10 km+ - 230° 230° 8 kt METAR EHLE 161055Z AUTO 23008KT 190V280 9999 NSC 26/16 Q1007 NOSIG
12:25
V
25 °C 10 km+ - 220° 220° 8 kt METAR EHLE 161025Z AUTO 22008KT 180V270 9999 NSC 25/17 Q1007 NOSIG
11:55
V
25 °C 10 km+ - 230° 230° 7 kt METAR EHLE 160955Z AUTO 23007KT 180V280 9999 NSC 25/17 Q1007 NOSIG
11:25
V
24 °C 10 km+ - 220° 220° 4 kt METAR EHLE 160925Z AUTO 22004KT 170V280 9999 NSC 24/17 Q1007 NOSIG
10:55
V
24 °C 10 km+ - 230° 230° 8 kt METAR EHLE 160855Z AUTO 23008KT 190V260 9999 NSC 24/17 Q1007 NOSIG
10:25
V
23 °C 10 km+ - 230° 230° 5 kt METAR EHLE 160825Z AUTO 23005KT 180V290 9999 NSC 23/17 Q1007 NOSIG
09:55
V
22 °C 10 km+ - 220° 220° 7 kt METAR EHLE 160755Z AUTO 22007KT 200V260 9999 NSC 22/18 Q1006 NOSIG
09:25
V
21 °C 10 km+ - 220° 220° 6 kt METAR EHLE 160725Z AUTO 22006KT 190V250 9999 NCD 21/17 Q1006 NOSIG
08:55
V
20 °C 10 km+ - 220° 220° 6 kt METAR EHLE 160655Z AUTO 22006KT 180V240 9999 NSC 20/17 Q1006 NOSIG
08:25
V
20 °C 10 km+ - 210° 210° 6 kt METAR EHLE 160625Z AUTO 21006KT 180V240 9999 NSC 20/17 Q1006 NOSIG
07:55
V
19 °C 10 km+ - 200° 200° 5 kt METAR EHLE 160555Z AUTO 20005KT 170V230 9999 NSC 19/17 Q1006 NOSIG
07:25
V
18 °C 10 km+ - 210° 210° 4 kt METAR EHLE 160525Z AUTO 21004KT 180V240 9999 NSC 18/17 Q1006 NOSIG
06:55
M
16 °C 7 km - 150° 150° 6 kt METAR EHLE 160455Z AUTO 15006KT 7000 NSC 16/15 Q1005 BECMG CAVOK
06:25
M
15 °C 7 km - 170° 170° 6 kt METAR EHLE 160425Z AUTO 17006KT 7000 NSC 15/14 Q1005
05:55
M
15 °C 7 km - 180° 180° 5 kt METAR EHLE 160355Z AUTO 18005KT 7000 NSC 15/15 Q1005
05:25
V
16 °C 10 km+ - 190° 190° 5 kt METAR EHLE 160325Z AUTO 19005KT 9999 NCD 16/15 Q1005
04:55
V
16 °C 9 km - 180° 180° 5 kt METAR EHLE 160255Z AUTO 18005KT 9000 NCD 16/15 Q1005
04:25
V
16 °C 9 km - 160° 160° 6 kt METAR EHLE 160225Z AUTO 16006KT 9000 NCD 16/15 Q1005
03:55
V
17 °C 10 km+ - 190° 190° 4 kt METAR EHLE 160155Z AUTO 19004KT 9999 NCD 17/16 Q1005
03:25
V
17 °C 10 km+ - 220° 220° 3 kt METAR EHLE 160125Z AUTO 22003KT 9999 NCD 17/16 Q1005
02:55
V
18 °C 10 km+ - 190° 190° 4 kt METAR EHLE 160055Z AUTO 19004KT 9999 NSC 18/17 Q1005
02:25
V
18 °C 10 km+ - 160° 160° 3 kt METAR EHLE 160025Z AUTO 16003KT 9999 NSC 18/17 Q1005
01:55
V
19 °C 9 km - Var Var 2 kt METAR EHLE 152355Z AUTO VRB02KT 9000 NSC 19/18 Q1005
01:25
V
19 °C 10 km+ - 200° 200° 3 kt METAR EHLE 152325Z AUTO 20003KT 150V230 9999 NSC 19/18 Q1005
00:55
V
19 °C 8 km - 170° 170° 5 kt METAR EHLE 152255Z AUTO 17005KT 8000 NCD 19/18 Q1005
00:25
V
20 °C 10 km+ - 150° 150° 4 kt METAR EHLE 152225Z AUTO 15004KT 9999 NSC 20/19 Q1005

15 sierpnia 2022

Czas Kod Pogoda Temp. Widoczność Sufit Wiatr METAR/SPECI
23:55
V
21 °C 10 km+ - Var Var 2 kt METAR EHLE 152155Z AUTO VRB02KT 9999 NSC 21/19 Q1005
23:25
V
21 °C 10 km+ - 200° 200° 5 kt METAR EHLE 152125Z AUTO 20005KT 9999 FEW015CB 21/19 Q1005
22:55
V
21 °C 10 km+ - Var Var 2 kt METAR EHLE 152055Z AUTO VRB02KT 9999 NSC 21/19 Q1005
22:25
V
22 °C 10 km+ - Var 000° 0 kt METAR EHLE 152025Z AUTO 00000KT 9999 NSC 22/18 Q1005 NOSIG
21:55
V
22 °C 10 km+ - Var Var 2 kt METAR EHLE 151955Z AUTO VRB02KT 9999 NSC 22/18 Q1005 NOSIG
21:25
V
22 °C 10 km+ - 290° 290° 3 kt METAR EHLE 151925Z AUTO 29003KT 9999 NSC 22/19 Q1004 NOSIG
20:55
V
23 °C 10 km+ - 280° 280° 3 kt METAR EHLE 151855Z AUTO 28003KT 9999 NSC 23/18 Q1004 NOSIG
20:25
V
24 °C 10 km+ - 340° 340° 3 kt METAR EHLE 151825Z AUTO 34003KT 9999 TS FEW025CB 24/18 Q1004 NOSIG
19:55
V
24 °C 10 km+ - 330° 330° 2 kt METAR EHLE 151755Z AUTO 33002KT 9999 NSC 24/18 Q1004 NOSIG
19:25
V
24 °C 10 km+ - 300° 300° 4 kt METAR EHLE 151725Z AUTO 30004KT 9999 NSC 24/18 Q1004 NOSIG
18:55
V
24 °C 10 km+ - 280° 280° 5 kt METAR EHLE 151655Z AUTO 28005KT 250V310 9999 NSC 24/17 Q1004 NOSIG
18:25
V
25 °C 10 km+ - 250° 250° 4 kt METAR EHLE 151625Z AUTO 25004KT 190V290 9999 NSC 25/17 Q1004 NOSIG
17:55
V
26 °C 10 km+ - 260° 260° 4 kt METAR EHLE 151555Z AUTO 26004KT 180V340 9999 FEW031 26/18 Q1004 NOSIG
17:25
V
26 °C 10 km+ - 270° 270° 7 kt METAR EHLE 151525Z AUTO 27007KT 230V300 9999 FEW035 26/17 Q1004 NOSIG
16:55
V
26 °C 10 km+ - Var Var 6 kt METAR EHLE 151455Z AUTO VRB06KT 9999 NSC 26/17 Q1004 NOSIG
16:25
V
26 °C 10 km+ - 230° 230° 7 kt METAR EHLE 151425Z AUTO 23007KT 200V270 9999 NSC 26/18 Q1004 NOSIG
15:55
V
26 °C 10 km+ - 230° 230° 10 kt METAR EHLE 151355Z AUTO 23010KT 180V260 9999 NSC 26/18 Q1004 NOSIG
15:25
V
26 °C 10 km+ - 230° 230° 10 kt METAR EHLE 151325Z AUTO 23010KT 210V280 9999 NSC 26/17 Q1003 NOSIG
14:55
V
26 °C 10 km+ - 230° 230° 11 kt METAR EHLE 151255Z AUTO 23011KT 190V260 9999 NSC 26/17 Q1004 NOSIG
14:25
V
25 °C 10 km+ - 210° 210° 10 kt METAR EHLE 151225Z AUTO 21010KT 9999 NSC 25/17 Q1003 NOSIG
13:55
V
26 °C 10 km+ - 210° 210° 10 kt METAR EHLE 151155Z AUTO 21010KT 9999 NSC 26/16 Q1003 NOSIG
13:25
V
27 °C 10 km+ - 210° 210° 4 kt METAR EHLE 151125Z AUTO 21004KT 140V260 9999 NSC 27/16 Q1003 NOSIG
12:55
V
26 °C 10 km+ - 230° 230° 5 kt METAR EHLE 151055Z AUTO 23005KT 180V260 9999 NSC 26/16 Q1003 NOSIG
12:25
V
26 °C 10 km+ - 210° 210° 7 kt METAR EHLE 151025Z AUTO 21007KT 170V260 9999 NSC 26/17 Q1003 NOSIG
11:55
V
25 °C 10 km+ - 260° 260° 5 kt METAR EHLE 150955Z AUTO 26005KT 220V320 9999 NSC 25/16 Q1003 NOSIG
11:25
V
25 °C 10 km+ - 270° 270° 6 kt METAR EHLE 150925Z AUTO 27006KT 190V300 9999 NSC 25/17 Q1003 NOSIG
10:55
V
24 °C 10 km+ - 270° 270° 7 kt METAR EHLE 150855Z AUTO 27007KT 240V300 9999 NSC 24/17 Q1003 NOSIG
10:25
V
24 °C 10 km+ - 250° 250° 9 kt METAR EHLE 150825Z AUTO 25009KT 9999 NSC 24/17 Q1002 NOSIG
09:55
V
24 °C 10 km+ - 270° 270° 10 kt METAR EHLE 150755Z AUTO 27010KT 240V310 9999 NSC 24/18 Q1002 NOSIG
09:25
V
23 °C 10 km+ - 250° 250° 6 kt METAR EHLE 150725Z AUTO 25006KT 230V290 9999 NSC 23/18 Q1002 NOSIG
08:55
V
24 °C 10 km+ - Var Var 2 kt METAR EHLE 150655Z AUTO VRB02KT 9999 FEW028CB 24/17 Q1002 RETS NOSIG
08:25
V
22 °C 10 km+ - 140° 140° 7 kt METAR EHLE 150625Z AUTO 14007KT 090V200 9999 TS FEW022CB 22/17 Q1002 BECMG NSW
07:55
V
21 °C 10 km+ - 190° 190° 8 kt METAR EHLE 150555Z AUTO 19008KT 160V220 9999 TS FEW015CB 21/18 Q1002 NOSIG
07:25
V
20 °C 10 km+ - 030° 030° 5 kt METAR EHLE 150525Z AUTO 03005KT 9999 NSC 20/17 Q1001 NOSIG
06:55
V
20 °C 10 km+ - 340° 340° 5 kt METAR EHLE 150455Z AUTO 34005KT 9999 TS FEW015CB 20/18 Q1002
06:25
V
19 °C 10 km+ - Var Var 2 kt METAR EHLE 150425Z AUTO VRB02KT 9999 -TSRA DZ FEW022 19/18 Q1002
05:55
V
20 °C 10 km+ - Var Var 2 kt METAR EHLE 150355Z AUTO VRB02KT 9999 TS NSC 20/17 Q1002
05:25
V
19 °C 10 km+ - 080° 080° 3 kt METAR EHLE 150325Z AUTO 08003KT 060V120 9999 NSC 19/17 Q1002
04:55
V
20 °C 10 km+ - 030° 030° 4 kt METAR EHLE 150255Z AUTO 03004KT 9999 NSC 20/17 Q1002
04:25
V
19 °C 10 km+ - 050° 050° 3 kt METAR EHLE 150225Z AUTO 05003KT 9999 NSC 19/17 Q1002
03:55
V
19 °C 10 km+ - 050° 050° 3 kt METAR EHLE 150155Z AUTO 05003KT 9999 NSC 19/17 Q1002
03:25
V
19 °C 10 km+ - 060° 060° 3 kt METAR EHLE 150125Z AUTO 06003KT 020V100 9999 NSC 19/16 Q1003
02:55
V
20 °C 10 km+ - 030° 030° 2 kt METAR EHLE 150055Z AUTO 03002KT 9999 NSC 20/17 Q1003
02:25
V
19 °C 10 km+ - 030° 030° 2 kt METAR EHLE 150025Z AUTO 03002KT 9999 NSC 19/16 Q1003
01:55
V
19 °C 10 km+ - 060° 060° 3 kt METAR EHLE 142355Z AUTO 06003KT 9999 NSC 19/16 Q1003
01:25
V
20 °C 10 km+ - 030° 030° 4 kt METAR EHLE 142325Z AUTO 03004KT 9999 NSC 20/16 Q1004
00:55
V
20 °C 10 km+ - 040° 040° 6 kt METAR EHLE 142255Z AUTO 04006KT 9999 NSC 20/16 Q1004
00:25
V
21 °C 10 km+ - 050° 050° 5 kt METAR EHLE 142225Z AUTO 05005KT 9999 NSC 21/17 Q1004

14 sierpnia 2022

Czas Kod Pogoda Temp. Widoczność Sufit Wiatr METAR/SPECI
23:55
V
21 °C 10 km+ - 050° 050° 5 kt METAR EHLE 142155Z AUTO 05005KT 9999 NSC 21/16 Q1004
23:25
V
21 °C 10 km+ - 050° 050° 5 kt METAR EHLE 142125Z AUTO 05005KT 9999 NSC 21/17 Q1004
22:55
V
22 °C 10 km+ - 040° 040° 4 kt METAR EHLE 142055Z AUTO 04004KT 9999 NSC 22/17 Q1004
22:25
V
23 °C 10 km+ - 040° 040° 6 kt METAR EHLE 142025Z AUTO 04006KT 9999 NSC 23/17 Q1004
21:55
V
24 °C 10 km+ - 040° 040° 6 kt METAR EHLE 141955Z AUTO 04006KT 9999 NSC 24/17 Q1005 NOSIG
21:25
V
24 °C 10 km+ - 040° 040° 6 kt METAR EHLE 141925Z AUTO 04006KT 9999 NSC 24/17 Q1004 NOSIG
20:55
V
26 °C 10 km+ - 040° 040° 5 kt METAR EHLE 141855Z AUTO 04005KT 9999 NSC 26/17 Q1005 NOSIG
20:25
V
26 °C 10 km+ - 020° 020° 5 kt METAR EHLE 141825Z AUTO 02005KT 9999 NSC 26/17 Q1005 NOSIG
19:55
V
27 °C 10 km+ - 020° 020° 7 kt METAR EHLE 141755Z AUTO 02007KT 9999 NSC 27/16 Q1004 NOSIG
19:25
V
28 °C 10 km+ - 010° 010° 8 kt METAR EHLE 141725Z AUTO 01008KT 9999 NSC 28/16 Q1005 NOSIG
18:55
V
29 °C 10 km+ - 020° 020° 8 kt METAR EHLE 141655Z AUTO 02008KT 340V050 9999 NSC 29/16 Q1005 NOSIG
18:25
V
30 °C 10 km+ - 040° 040° 9 kt METAR EHLE 141625Z AUTO 04009KT 9999 NSC 30/15 Q1005 NOSIG
17:55
V
30 °C 10 km+ - 070° 070° 7 kt METAR EHLE 141555Z AUTO 07007KT 030V110 9999 NSC 30/14 Q1005 NOSIG
17:25
V
30 °C 10 km+ - 060° 060° 4 - 17 kt METAR EHLE 141525Z AUTO 06004G17KT 350V130 9999 NSC 30/14 Q1006 NOSIG
16:55
V
31 °C 10 km+ - 040° 040° 7 kt METAR EHLE 141455Z AUTO 04007KT 350V090 9999 NSC 31/14 Q1006 NOSIG
16:25
V
30 °C 10 km+ - 080° 080° 7 kt METAR EHLE 141425Z AUTO 08007KT 020V150 9999 NSC 30/14 Q1006 NOSIG
15:55
V
31 °C 10 km+ - 060° 060° 8 kt METAR EHLE 141355Z AUTO 06008KT 010V110 9999 NSC 31/14 Q1006 NOSIG
15:25
V
30 °C 10 km+ - 060° 060° 8 kt METAR EHLE 141325Z AUTO 06008KT 010V110 9999 NSC 30/14 Q1007 NOSIG
14:55
V
30 °C 10 km+ - Var Var 5 kt METAR EHLE 141255Z AUTO VRB05KT 9999 NSC 30/13 Q1007 NOSIG
14:25
V
30 °C 10 km+ - 120° 120° 6 kt METAR EHLE 141225Z AUTO 12006KT 080V220 9999 NCD 30/13 Q1007 NOSIG
13:55
V
30 °C 10 km+ - 090° 090° 7 kt METAR EHLE 141155Z AUTO 09007KT 030V140 9999 NCD 30/15 Q1008 NOSIG
Starsze dane

My i osoby trzecie śledzimy twoje zachowanie w internecie na naszej stronie za pomocą plików cookie. Jeśli kontynuujesz, zakładamy, że zgadzasz się z naszą polityką plików cookie. Dowiedz się więcej